Enter the Airport ICAO Code

Search by Airport or City

Current Weather

GCXO | Tenerife-North Airport (Los Rodeos Airport)

Tenerife, Canary Islands, Spain

Last Update 4 Minutes Ago

Sky with Few Clouds

Temperature of 15 ºC

Calm Wind

Temperature

15 ºC

Dew Point Temperature

13 ºC

Relative Humidity

87.89 %

Wind Direction

None

Wind Velocity

0 km/h (0 kt)

Gusts

None

Visibility

Greater than 10 Kilometers

Sea Level Pressure

1016 hPa (Hectopascals)

Layers of Clouds

5% to 30% of Sky Covered from 366 mts (1200 ft) Above Ground Level.

METAR GCXO 022100Z 00000KT 9999 FEW012 15/13 Q1016 NOSIG

Weather Forecast

GCXO | Tenerife-North Airport (Los Rodeos Airport)

Tenerife, Canary Islands, Spain

Forecast valid for the next 24 Hours

From now on it is expected:

Sky with Few Clouds

Light to Moderate Winds from South

Maximum Temperature

18 ºC in 17 Hours

Minimum Temperature

12 ºC in 10 Hours

TAF GCXO 022000Z 0221/0321 19006KT 9999 FEW010 TX18/0314Z TN12/0307Z